Weather at KSAZ-TV Heliport

Public forecast

Using degrees Fahrenheit for public forecast. Weather courtesy of forecast.io.

Closest aviation weather report (METAR) to KSAZ-TV Heliport

Report is more than 2 hours old.

Closest report is Phoenix Sky Harbor International Airport, 3.9 nm (7.1 km) ESE.

2024/06/24 20:51 (retrieved 3 hours ago)

KPHX 242051Z 00000KT 10SM FEW080 FEW120 FEW210 SCT270 42/17 A2976 RMK AO2 SLP054 CB DSNT N-E S AND NW T04170167 58026

Closest aviation forecast (TAF) to KSAZ-TV Heliport

Closest forecast is Phoenix Sky Harbor International Airport, 3.9 nm (7.1 km) ESE.

2024/06/24 21:52 (retrieved 2 hours ago)

TAF KPHX 242049Z 2421/2524 28008KT P6SM FEW150 SCT200 TEMPO 2505/2507 26014G22KT FM251100 VRB04KT P6SM SCT120 BKN200 FM251800 25007KT P6SM SCT150